Time;durP1;ratioP1;P1;durP2;ratioP2;P2;SDS_P1;SDS_P2;PMS_P1;PMS_P2;Temp;Humidity;BMP_temperature;BMP_pressure;BME280_temperature;BME280_humidity;BME280_pressure;Samples;Min_cycle;Max_cycle;Signal;HPM_P1;HPM_P2
2021/07/08 00:01:01;;;;;;;3.10;2.53;;;18.10;99.90;;;;;;6230692;28;20113;-81
2021/07/08 00:04:02;;;;;;;2.22;1.40;;;18.10;99.90;;;;;;6231318;28;20077;-80
2021/07/08 00:07:05;;;;;;;4.78;1.75;;;18.20;99.90;;;;;;6232028;28;20120;-78
2021/07/08 00:10:09;;;;;;;3.80;1.48;;;18.10;99.90;;;;;;6232099;28;20074;-80
2021/07/08 00:13:12;;;;;;;4.13;1.65;;;18.20;99.90;;;;;;6232382;28;20109;-81
2021/07/08 00:16:15;;;;;;;2.90;1.30;;;18.20;99.90;;;;;;6219786;28;20104;-79
2021/07/08 00:19:17;;;;;;;9.25;1.88;;;18.20;99.90;;;;;;6206988;28;20092;-80
2021/07/08 00:22:19;;;;;;;3.58;1.50;;;18.10;99.90;;;;;;6206135;28;20050;-81
2021/07/08 00:25:23;;;;;;;4.22;1.70;;;18.00;99.90;;;;;;6207852;28;20042;-79
2021/07/08 00:28:25;;;;;;;5.93;1.73;;;18.00;99.90;;;;;;6207425;28;20046;-81
2021/07/08 00:34:34;;;;;;;5.35;1.45;;;17.90;99.90;;;;;;6222958;28;20057;-78
2021/07/08 00:37:36;;;;;;;1.52;1.40;;;17.90;99.90;;;;;;6225232;28;20077;-78
2021/07/08 00:40:38;;;;;;;4.25;1.27;;;17.90;99.90;;;;;;6224519;28;20521;-78
2021/07/08 00:43:41;;;;;;;1.90;1.67;;;17.90;99.90;;;;;;6224263;28;20128;-79
2021/07/08 00:46:43;;;;;;;3.42;1.40;;;17.80;99.90;;;;;;6224305;28;20048;-77
2021/07/08 00:49:46;;;;;;;4.47;1.40;;;17.80;99.90;;;;;;6224663;28;20133;-77
2021/07/08 00:52:48;;;;;;;1.40;1.23;;;17.80;99.90;;;;;;6224039;28;20052;-78
2021/07/08 00:55:59;;;;;;;5.13;2.05;;;17.70;99.90;;;;;;6223684;28;20496;-77
2021/07/08 00:59:06;;;;;;;1.63;1.52;;;17.70;99.90;;;;;;6223968;28;20049;-78
2021/07/08 01:02:08;;;;;;;5.68;1.48;;;17.70;99.90;;;;;;6209534;28;20050;-78
2021/07/08 01:05:12;;;;;;;5.50;1.80;;;17.70;99.90;;;;;;6200195;28;20124;-77
2021/07/08 01:08:15;;;;;;;2.45;1.35;;;17.70;99.90;;;;;;6199632;28;20100;-78
2021/07/08 01:11:17;;;;;;;1.67;1.55;;;17.70;99.90;;;;;;6224011;28;20137;-78
2021/07/08 01:14:18;;;;;;;5.15;1.33;;;17.70;99.90;;;;;;6223638;28;20041;-78
2021/07/08 01:17:21;;;;;;;4.25;1.33;;;17.70;99.90;;;;;;6224387;28;20097;-79
2021/07/08 01:20:27;;;;;;;2.88;1.33;;;17.60;99.90;;;;;;6224219;28;20046;-78
2021/07/08 01:23:30;;;;;;;13.02;1.77;;;17.60;99.90;;;;;;6223350;28;20530;-78
2021/07/08 01:26:32;;;;;;;4.93;2.00;;;17.60;99.90;;;;;;6223256;28;20095;-79
2021/07/08 01:29:35;;;;;;;7.43;3.60;;;17.60;99.90;;;;;;6224088;28;20089;-79
2021/07/08 01:32:37;;;;;;;7.25;2.03;;;17.50;99.90;;;;;;6223084;28;20045;-78
2021/07/08 01:35:39;;;;;;;8.02;2.15;;;17.50;99.90;;;;;;6222875;28;20511;-78
2021/07/08 01:38:42;;;;;;;1.55;1.38;;;17.50;99.90;;;;;;6223215;28;20124;-77
2021/07/08 01:41:44;;;;;;;2.60;1.50;;;17.50;99.90;;;;;;6223861;28;20179;-79
2021/07/08 01:44:46;;;;;;;3.25;1.60;;;17.50;99.90;;;;;;6222916;28;20073;-78
2021/07/08 01:47:48;;;;;;;6.35;1.40;;;17.50;99.90;;;;;;6222732;28;20052;-77
2021/07/08 01:50:50;;;;;;;3.67;1.40;;;17.50;99.90;;;;;;6222758;28;20105;-78
2021/07/08 01:53:53;;;;;;;4.78;3.42;;;17.50;99.90;;;;;;6223478;28;20054;-77
2021/07/08 01:56:55;;;;;;;3.03;1.92;;;17.40;99.90;;;;;;6222933;28;20151;-77
2021/07/08 01:59:57;;;;;;;1.88;1.70;;;17.40;99.90;;;;;;6226729;28;20133;-76
2021/07/08 02:02:59;;;;;;;1.40;1.30;;;17.40;99.90;;;;;;6226096;28;20050;-77
2021/07/08 02:06:01;;;;;;;3.70;2.78;;;17.40;99.90;;;;;;6224247;28;20064;-78
2021/07/08 02:09:05;;;;;;;2.20;2.00;;;17.40;99.90;;;;;;6223092;28;20487;-78
2021/07/08 02:12:09;;;;;;;3.05;1.65;;;17.30;99.90;;;;;;6222419;28;20433;-78
2021/07/08 02:15:12;;;;;;;3.70;1.65;;;17.30;99.90;;;;;;6222459;28;20041;-78
2021/07/08 02:18:14;;;;;;;5.00;2.03;;;17.30;99.90;;;;;;6221961;28;20570;-78
2021/07/08 02:21:16;;;;;;;5.70;2.10;;;17.30;99.90;;;;;;6223012;28;20140;-78
2021/07/08 02:24:19;;;;;;;2.63;2.13;;;17.20;99.90;;;;;;6222130;28;20115;-79
2021/07/08 02:27:21;;;;;;;4.13;1.77;;;17.20;99.90;;;;;;6222368;28;20068;-78
2021/07/08 02:30:25;;;;;;;2.47;2.28;;;17.30;99.90;;;;;;6222339;28;20069;-79
2021/07/08 02:33:27;;;;;;;2.53;1.70;;;17.30;99.90;;;;;;6222199;28;20423;-78
2021/07/08 02:36:29;;;;;;;3.33;1.45;;;17.40;99.90;;;;;;6221742;28;20200;-78
2021/07/08 02:39:32;;;;;;;2.67;1.67;;;17.40;99.90;;;;;;6222127;28;20072;-77
2021/07/08 02:42:34;;;;;;;2.17;1.73;;;17.40;99.90;;;;;;6222132;28;20046;-77
2021/07/08 02:45:38;;;;;;;9.00;1.60;;;17.40;99.90;;;;;;6222009;28;20073;-78
2021/07/08 02:48:40;;;;;;;6.13;1.80;;;17.30;99.90;;;;;;6221997;28;20400;-77
2021/07/08 02:51:42;;;;;;;2.22;1.50;;;17.30;99.90;;;;;;6221634;28;20575;-78
2021/07/08 02:54:45;;;;;;;3.90;2.20;;;17.20;99.90;;;;;;6222130;28;20045;-79
2021/07/08 02:57:47;;;;;;;2.97;1.73;;;17.20;99.90;;;;;;6221569;28;20682;-78
2021/07/08 03:00:49;;;;;;;3.83;1.38;;;17.20;99.90;;;;;;6221614;28;20518;-77
2021/07/08 03:03:51;;;;;;;6.07;2.17;;;17.20;99.90;;;;;;6220602;28;20054;-78
2021/07/08 03:06:53;;;;;;;4.25;2.42;;;17.30;99.90;;;;;;6221034;28;20493;-78
2021/07/08 03:09:56;;;;;;;5.93;2.17;;;17.20;99.90;;;;;;6222554;28;20140;-77
2021/07/08 03:12:59;;;;;;;7.72;2.92;;;17.30;99.90;;;;;;6221975;28;20069;-78
2021/07/08 03:16:00;;;;;;;4.28;2.05;;;17.30;99.90;;;;;;6221260;28;20128;-78
2021/07/08 03:19:02;;;;;;;4.97;2.15;;;17.30;99.90;;;;;;6221637;28;20100;-79
2021/07/08 03:22:05;;;;;;;2.70;2.50;;;17.50;99.90;;;;;;6221631;28;20081;-79
2021/07/08 03:25:10;;;;;;;6.03;2.83;;;17.50;99.90;;;;;;6222817;28;20045;-78
2021/07/08 03:28:12;;;;;;;7.00;3.10;;;17.50;99.90;;;;;;6225986;28;20123;-77
2021/07/08 03:31:14;;;;;;;6.90;3.83;;;17.50;99.90;;;;;;6226089;28;20073;-77
2021/07/08 03:34:16;;;;;;;4.55;2.33;;;17.50;99.90;;;;;;6225885;28;20592;-77
2021/07/08 03:37:18;;;;;;;2.83;2.60;;;17.40;99.90;;;;;;6226356;28;20185;-76
2021/07/08 03:40:22;;;;;;;7.97;2.08;;;17.40;99.90;;;;;;6225561;28;20050;-77
2021/07/08 03:43:23;;;;;;;3.03;1.77;;;17.40;99.90;;;;;;6225989;28;20151;-77
2021/07/08 03:46:26;;;;;;;4.10;1.90;;;17.30;99.90;;;;;;6225207;28;20139;-78
2021/07/08 03:49:28;;;;;;;4.95;2.47;;;17.30;99.90;;;;;;6226131;28;20089;-77
2021/07/08 03:52:29;;;;;;;3.55;1.73;;;17.20;99.90;;;;;;6225336;28;20129;-77
2021/07/08 03:55:33;;;;;;;4.85;2.08;;;17.00;99.90;;;;;;6225545;28;20050;-76
2021/07/08 03:58:34;;;;;;;2.45;1.48;;;16.90;99.90;;;;;;6225364;28;20116;-77
2021/07/08 04:01:36;;;;;;;4.10;2.10;;;16.90;99.90;;;;;;6225615;28;20061;-77
2021/07/08 04:04:39;;;;;;;6.40;1.95;;;17.00;99.90;;;;;;6210092;28;20054;-77
2021/07/08 04:07:40;;;;;;;4.57;2.33;;;17.10;99.90;;;;;;6200578;28;20054;-77
2021/07/08 04:10:45;;;;;;;6.88;2.63;;;17.20;99.90;;;;;;6200816;28;20129;-77
2021/07/08 04:13:47;;;;;;;6.07;2.63;;;17.30;99.90;;;;;;6201865;28;20132;-77
2021/07/08 04:16:49;;;;;;;18.80;4.63;;;17.30;99.90;;;;;;6200295;28;20097;-77
2021/07/08 04:19:51;;;;;;;5.65;2.58;;;17.40;99.90;;;;;;6200396;28;20526;-77
2021/07/08 04:22:53;;;;;;;4.63;3.05;;;17.60;99.90;;;;;;6200346;28;20093;-77
2021/07/08 04:25:56;;;;;;;2.03;1.60;;;17.80;99.90;;;;;;6200413;28;20147;-77
2021/07/08 04:28:58;;;;;;;4.18;2.35;;;17.90;99.90;;;;;;6200341;28;20050;-77
2021/07/08 04:32:00;;;;;;;2.55;2.20;;;17.80;99.90;;;;;;6200099;28;20620;-77
2021/07/08 04:35:02;;;;;;;4.10;1.98;;;17.60;99.90;;;;;;6200231;28;20057;-77
2021/07/08 04:38:05;;;;;;;4.55;2.40;;;17.60;99.90;;;;;;6199779;28;20046;-77
2021/07/08 04:41:09;;;;;;;9.98;2.72;;;17.50;99.90;;;;;;6200905;28;20058;-77
2021/07/08 04:44:11;;;;;;;2.83;2.30;;;17.60;99.90;;;;;;6200034;28;20049;-76
2021/07/08 04:47:13;;;;;;;5.88;2.80;;;17.70;99.90;;;;;;6199571;28;20046;-77
2021/07/08 04:50:17;;;;;;;3.58;2.53;;;17.80;99.90;;;;;;6199969;28;20050;-76
2021/07/08 04:53:19;;;;;;;5.38;2.47;;;17.90;99.90;;;;;;6200129;28;20081;-76
2021/07/08 04:56:23;;;;;;;5.43;2.72;;;17.90;99.90;;;;;;6199380;28;20125;-77
2021/07/08 04:59:24;;;;;;;4.13;3.22;;;18.10;99.90;;;;;;6199560;28;20070;-77
2021/07/08 05:02:26;;;;;;;4.72;3.28;;;18.30;99.90;;;;;;6199280;28;20519;-77
2021/07/08 05:05:28;;;;;;;3.03;2.70;;;18.50;99.90;;;;;;6209596;28;20057;-77
2021/07/08 05:08:30;;;;;;;3.40;2.70;;;18.60;99.90;;;;;;6199119;28;20508;-77
2021/07/08 05:11:33;;;;;;;3.28;2.30;;;18.60;99.90;;;;;;6199234;28;20466;-77
2021/07/08 05:14:35;;;;;;;4.18;2.83;;;18.50;99.90;;;;;;6193757;28;20070;-77
2021/07/08 05:17:37;;;;;;;3.20;1.70;;;18.60;99.90;;;;;;6175170;28;20763;-78
2021/07/08 05:20:40;;;;;;;2.58;2.33;;;18.70;99.90;;;;;;6196729;28;20415;-77
2021/07/08 05:23:42;;;;;;;2.72;2.42;;;18.70;99.90;;;;;;6184895;28;20070;-76
2021/07/08 05:26:45;;;;;;;4.50;3.10;;;18.70;99.90;;;;;;6174801;28;20109;-77
2021/07/08 05:29:48;;;;;;;4.35;2.20;;;18.80;99.90;;;;;;6176287;28;20083;-77
2021/07/08 05:32:50;;;;;;;5.65;2.45;;;18.80;99.90;;;;;;6176231;28;20130;-77
2021/07/08 05:35:51;;;;;;;4.95;2.20;;;18.80;99.90;;;;;;6177649;28;20039;-77
2021/07/08 05:38:53;;;;;;;8.70;3.40;;;18.70;99.90;;;;;;6174652;28;20559;-77
2021/07/08 05:41:56;;;;;;;3.65;2.60;;;18.60;99.90;;;;;;6174395;28;20142;-77
2021/07/08 05:44:59;;;;;;;9.57;5.47;;;18.60;99.90;;;;;;6174816;28;20054;-76
2021/07/08 05:48:01;;;;;;;2.65;2.22;;;18.60;99.90;;;;;;6173473;28;20054;-77
2021/07/08 05:51:03;;;;;;;5.93;2.33;;;18.60;99.90;;;;;;6183525;28;20181;-77
2021/07/08 05:54:04;;;;;;;7.07;2.53;;;18.60;99.90;;;;;;6196815;28;20086;-77
2021/07/08 05:57:08;;;;;;;4.75;1.75;;;18.70;99.90;;;;;;6174050;28;20086;-77
2021/07/08 06:00:10;;;;;;;5.60;2.50;;;18.90;99.90;;;;;;6192061;28;20151;-76
2021/07/08 06:03:12;;;;;;;10.35;2.50;;;19.00;99.90;;;;;;6197171;28;20093;-77
2021/07/08 06:06:14;;;;;;;6.22;2.63;;;19.00;99.90;;;;;;6215906;28;20092;-77
2021/07/08 06:09:16;;;;;;;6.55;2.55;;;19.20;99.90;;;;;;6215342;28;20133;-77
2021/07/08 06:12:22;;;;;;;6.55;2.78;;;19.30;99.90;;;;;;6197718;28;20050;-78
2021/07/08 06:15:24;;;;;;;4.43;2.70;;;19.30;99.90;;;;;;6197659;28;20371;-77
2021/07/08 06:18:25;;;;;;;4.50;2.85;;;19.30;99.90;;;;;;6197480;28;20420;-77
2021/07/08 06:21:28;;;;;;;6.78;2.67;;;19.40;99.90;;;;;;6197875;28;20054;-77
2021/07/08 06:24:30;;;;;;;6.35;2.40;;;19.40;99.90;;;;;;6197516;28;20050;-77
2021/07/08 06:27:33;;;;;;;8.07;3.95;;;19.40;99.90;;;;;;6190750;28;20132;-75
2021/07/08 06:30:35;;;;;;;5.72;2.47;;;19.50;99.90;;;;;;6197519;28;20105;-75
2021/07/08 06:33:37;;;;;;;7.50;2.95;;;19.60;99.90;;;;;;6219144;23;20137;-76
2021/07/08 06:36:39;;;;;;;6.63;2.92;;;19.90;99.90;;;;;;6196832;28;20046;-77
2021/07/08 06:39:41;;;;;;;8.50;2.08;;;20.10;99.90;;;;;;6197279;28;20511;-77
2021/07/08 06:42:44;;;;;;;2.72;2.35;;;20.50;99.90;;;;;;6193241;28;20118;-77
2021/07/08 06:45:46;;;;;;;3.85;2.13;;;20.90;99.90;;;;;;6173495;28;20070;-77
2021/07/08 06:48:48;;;;;;;5.28;2.40;;;21.00;99.90;;;;;;6173346;28;20174;-77
2021/07/08 06:51:50;;;;;;;5.93;2.15;;;21.00;99.90;;;;;;6173191;28;20050;-77
2021/07/08 06:54:52;;;;;;;3.10;1.98;;;21.60;99.90;;;;;;6173390;28;20058;-78
2021/07/08 06:57:55;;;;;;;4.18;2.10;;;22.30;99.90;;;;;;6173584;28;20404;-78
2021/07/08 07:00:57;;;;;;;3.85;1.60;;;22.80;99.20;;;;;;6176318;28;20500;-78
2021/07/08 07:03:58;;;;;;;3.38;1.73;;;22.90;98.00;;;;;;6178461;28;20129;-78
2021/07/08 07:07:00;;;;;;;4.63;1.38;;;22.70;96.80;;;;;;6176507;28;20116;-78
2021/07/08 07:10:02;;;;;;;3.38;1.40;;;22.20;96.80;;;;;;6153932;29;20062;-78
2021/07/08 07:13:11;;;;;;;1.98;0.90;;;22.00;97.80;;;;;;6160321;28;20078;-78
2021/07/08 07:16:13;;;;;;;2.20;1.35;;;22.20;97.40;;;;;;6177708;28;20122;-78
2021/07/08 07:19:15;;;;;;;2.67;1.30;;;22.40;96.90;;;;;;6177926;28;20513;-77
2021/07/08 07:22:17;;;;;;;3.60;1.00;;;22.60;96.60;;;;;;6178444;28;20070;-78
2021/07/08 07:25:21;;;;;;;3.80;1.52;;;22.60;96.30;;;;;;6178026;28;20520;-78
2021/07/08 07:28:24;;;;;;;2.38;1.55;;;22.60;96.20;;;;;;6177466;28;20063;-78
2021/07/08 07:31:26;;;;;;;4.28;1.30;;;22.60;96.20;;;;;;6177456;28;20083;-77
2021/07/08 07:34:27;;;;;;;2.85;1.05;;;23.10;95.00;;;;;;6177397;28;20074;-77
2021/07/08 07:37:29;;;;;;;2.22;1.40;;;23.20;94.00;;;;;;6177779;28;20082;-79
2021/07/08 07:40:31;;;;;;;8.95;3.20;;;23.30;93.90;;;;;;6177750;28;20134;-77
2021/07/08 07:43:35;;;;;;;4.10;1.73;;;23.60;92.60;;;;;;6177555;28;20137;-78
2021/07/08 07:46:37;;;;;;;1.63;1.33;;;23.50;92.60;;;;;;6177149;28;20113;-77
2021/07/08 07:49:39;;;;;;;4.22;1.42;;;23.40;92.50;;;;;;6177447;28;20512;-77
2021/07/08 07:52:41;;;;;;;4.15;1.52;;;23.30;92.80;;;;;;6176863;28;20129;-77
2021/07/08 07:55:42;;;;;;;3.08;1.70;;;23.40;92.70;;;;;;6176962;28;20101;-78
2021/07/08 07:58:46;;;;;;;3.53;1.10;;;23.60;92.60;;;;;;6177051;28;20078;-77
2021/07/08 08:01:47;;;;;;;4.20;1.70;;;23.60;92.30;;;;;;6177392;28;20078;-77
2021/07/08 08:04:56;;;;;;;2.63;1.48;;;23.70;91.80;;;;;;6176529;28;20101;-77
2021/07/08 08:11:20;;;;;;;3.70;1.63;;;23.70;91.60;;;;;;6176193;28;20043;-77
2021/07/08 08:14:23;;;;;;;5.57;1.77;;;23.60;91.80;;;;;;6176883;28;20122;-78
2021/07/08 08:17:25;;;;;;;4.13;2.00;;;23.50;92.00;;;;;;6176704;28;20098;-78
2021/07/08 08:20:28;;;;;;;3.85;1.80;;;23.30;92.20;;;;;;6176553;28;20053;-77
2021/07/08 08:23:30;;;;;;;3.65;1.65;;;23.20;91.90;;;;;;6176107;28;20054;-77
2021/07/08 08:26:32;;;;;;;6.40;2.05;;;23.00;92.20;;;;;;6176075;28;20101;-77
2021/07/08 08:29:35;;;;;;;3.00;2.00;;;22.90;92.60;;;;;;6176680;28;20074;-77
2021/07/08 08:32:37;;;;;;;3.75;1.70;;;22.80;92.60;;;;;;6175790;28;20547;-77
2021/07/08 08:35:39;;;;;;;3.45;1.50;;;22.70;93.20;;;;;;6175742;28;21187;-77
2021/07/08 08:38:41;;;;;;;4.75;1.63;;;22.70;93.60;;;;;;6175942;28;20648;-77
2021/07/08 08:41:43;;;;;;;4.45;1.60;;;22.60;93.30;;;;;;6176211;28;20510;-78
2021/07/08 08:44:46;;;;;;;3.53;2.05;;;22.50;93.90;;;;;;6175984;28;20051;-77
2021/07/08 08:47:56;;;;;;;6.95;2.60;;;22.40;96.00;;;;;;6175569;28;20122;-77
2021/07/08 08:50:58;;;;;;;5.72;1.70;;;22.20;97.30;;;;;;6175926;28;20431;-78
2021/07/08 08:54:00;;;;;;;4.82;1.60;;;22.00;98.00;;;;;;6175435;28;20134;-77
2021/07/08 08:57:03;;;;;;;3.47;1.75;;;21.90;98.70;;;;;;6175942;28;20118;-77
2021/07/08 09:00:40;;;;;;;2.30;2.10;;;21.90;99.70;;;;;;6175547;28;20133;-77
2021/07/08 09:03:44;;;;;;;3.38;1.80;;;21.70;99.90;;;;;;6175509;28;20121;-77
2021/07/08 09:06:46;;;;;;;4.57;2.53;;;21.60;99.90;;;;;;6175030;28;20409;-77
2021/07/08 09:09:48;;;;;;;3.90;2.40;;;21.60;99.90;;;;;;6162263;28;20055;-77
2021/07/08 09:12:58;;;;;;;2.88;2.63;;;21.40;99.90;;;;;;6154934;28;20133;-78
2021/07/08 09:16:11;;;;;;;5.40;2.75;;;21.20;99.90;;;;;;6174997;28;20043;-77
2021/07/08 09:19:17;;;;;;;6.80;3.05;;;21.10;99.90;;;;;;6175209;28;20113;-78
2021/07/08 09:22:29;;;;;;;6.05;3.10;;;20.90;99.90;;;;;;6174314;28;20448;-77
2021/07/08 09:25:30;;;;;;;5.82;4.70;;;20.70;99.90;;;;;;6175210;28;20122;-78
2021/07/08 09:28:38;;;;;;;3.75;3.15;;;20.50;99.90;;;;;;6174823;28;20518;-77
2021/07/08 09:31:41;;;;;;;4.47;3.85;;;20.40;99.90;;;;;;6174554;28;20094;-78
2021/07/08 09:34:46;;;;;;;6.90;4.28;;;20.20;99.90;;;;;;6174835;28;20133;-78
2021/07/08 09:37:48;;;;;;;5.72;4.55;;;20.00;99.90;;;;;;6174625;28;20529;-78
2021/07/08 09:41:07;;;;;;;8.00;4.88;;;19.70;99.90;;;;;;6174910;28;20074;-77
2021/07/08 09:44:18;;;;;;;;;;;19.50;99.90;;;;;;6174793;28;20058;-78
2021/07/08 09:47:27;;;;;;;5.32;4.85;;;19.50;99.90;;;;;;6174644;28;19926;-77
2021/07/08 09:50:37;;;;;;;6.60;6.00;;;19.60;99.90;;;;;;6173966;28;20063;-77
2021/07/08 09:53:51;;;;;;;6.57;5.97;;;19.60;99.90;;;;;;6174279;28;20077;-77
2021/07/08 09:56:54;;;;;;;7.90;5.88;;;19.80;99.90;;;;;;6173436;28;20429;-77
2021/07/08 09:59:56;;;;;;;7.78;6.30;;;19.70;99.90;;;;;;6174178;28;20062;-77
2021/07/08 10:03:01;;;;;;;7.00;6.40;;;19.70;99.90;;;;;;6174170;28;20093;-77
2021/07/08 10:06:03;;;;;;;7.40;6.75;;;19.60;99.90;;;;;;6173645;28;20263;-77
2021/07/08 10:09:07;;;;;;;9.25;8.00;;;19.60;99.90;;;;;;6170233;28;20133;-77
2021/07/08 10:12:09;;;;;;;12.38;8.18;;;19.50;99.90;;;;;;6136837;28;20051;-77
2021/07/08 10:15:13;;;;;;;11.50;8.77;;;19.40;99.90;;;;;;6158514;28;20047;-77
2021/07/08 10:18:18;;;;;;;12.77;10.57;;;19.30;99.90;;;;;;6173175;28;20059;-77
2021/07/08 10:21:20;;;;;;;13.02;10.70;;;19.10;99.90;;;;;;6173851;28;20528;-77
2021/07/08 10:24:22;;;;;;;13.80;11.20;;;19.10;99.90;;;;;;6173292;28;20097;-77
2021/07/08 10:27:24;;;;;;;15.13;12.50;;;19.10;99.90;;;;;;6161367;28;20090;-77
2021/07/08 10:30:28;;;;;;;13.68;10.68;;;19.10;99.90;;;;;;6153434;28;20195;-77
2021/07/08 10:33:31;;;;;;;14.60;9.68;;;19.20;99.90;;;;;;6172905;28;20050;-77
2021/07/08 10:36:33;;;;;;;13.45;10.45;;;19.20;99.90;;;;;;6172933;28;20137;-77
2021/07/08 10:39:41;;;;;;;10.85;8.93;;;19.20;99.90;;;;;;6172967;28;20523;-78
2021/07/08 10:42:45;;;;;;;9.50;7.40;;;19.30;99.90;;;;;;6173162;28;20039;-78
2021/07/08 10:45:47;;;;;;;9.02;8.05;;;19.20;99.90;;;;;;6173280;28;20281;-78
2021/07/08 10:48:51;;;;;;;9.30;7.55;;;19.00;99.90;;;;;;6172809;28;20043;-77
2021/07/08 10:51:53;;;;;;;8.77;7.93;;;18.90;99.90;;;;;;6173159;28;20082;-78
2021/07/08 10:54:55;;;;;;;9.55;7.22;;;18.90;99.90;;;;;;6172724;28;20134;-78
2021/07/08 10:57:57;;;;;;;7.25;6.55;;;18.90;99.90;;;;;;6172938;28;20132;-77
2021/07/08 11:00:59;;;;;;;10.60;7.47;;;19.00;99.90;;;;;;6173718;28;20125;-77
2021/07/08 11:04:03;;;;;;;10.40;7.57;;;18.90;99.90;;;;;;6172829;28;20580;-78
2021/07/08 11:07:16;;;;;;;10.98;8.45;;;18.90;99.90;;;;;;6172789;28;20050;-77
2021/07/08 11:10:33;;;;;;;9.32;7.68;;;19.00;99.90;;;;;;6166502;28;20505;-77
2021/07/08 11:13:36;;;;;;;6.55;5.93;;;19.00;99.90;;;;;;6161486;28;20054;-77
2021/07/08 11:16:41;;;;;;;7.45;6.75;;;19.00;99.90;;;;;;6172505;28;20181;-77
2021/07/08 11:19:47;;;;;;;9.05;7.57;;;18.80;99.90;;;;;;6172544;28;20054;-78
2021/07/08 11:22:49;;;;;;;11.18;8.50;;;18.70;99.90;;;;;;6172763;28;20412;-78
2021/07/08 11:25:51;;;;;;;8.65;7.85;;;18.70;99.90;;;;;;6173629;28;20138;-77
2021/07/08 11:29:00;;;;;;;9.25;8.27;;;18.80;99.90;;;;;;6170040;28;20070;-78
2021/07/08 11:32:16;;;;;;;9.73;8.82;;;18.90;99.90;;;;;;6173288;28;20053;-78
2021/07/08 11:35:23;;;;;;;6.60;6.00;;;19.00;99.90;;;;;;6172811;28;20057;-78
2021/07/08 11:38:25;;;;;;;6.78;6.07;;;19.00;99.90;;;;;;6172527;28;20047;-77
2021/07/08 11:41:27;;;;;;;8.23;7.35;;;19.00;99.90;;;;;;6173066;28;20066;-78
2021/07/08 11:44:31;;;;;;;6.60;5.97;;;19.00;99.90;;;;;;6172674;28;20121;-77
2021/07/08 11:47:41;;;;;;;7.60;6.22;;;19.00;99.90;;;;;;6175810;28;20047;-77
2021/07/08 11:50:44;;;;;;;6.10;4.97;;;19.10;99.90;;;;;;6177620;28;20038;-78
2021/07/08 11:53:47;;;;;;;6.55;5.88;;;19.20;99.90;;;;;;6175372;28;20162;-77
2021/07/08 11:56:55;;;;;;;6.65;6.07;;;19.30;99.90;;;;;;6176176;28;20049;-78
2021/07/08 11:59:57;;;;;;;6.30;4.68;;;19.40;99.90;;;;;;6178312;28;20137;-78
2021/07/08 12:03:00;;;;;;;4.63;4.22;;;19.50;99.90;;;;;;6177266;28;20097;-78
2021/07/08 12:06:05;;;;;;;2.55;2.33;;;19.60;99.90;;;;;;6175885;28;20501;-78
2021/07/08 12:09:08;;;;;;;3.30;2.97;;;19.60;99.90;;;;;;6153682;29;20047;-77
2021/07/08 12:12:10;;;;;;;3.28;2.65;;;19.50;99.90;;;;;;6144450;28;20504;-78
2021/07/08 12:15:12;;;;;;;2.80;2.28;;;19.50;99.90;;;;;;6161659;28;20121;-78
2021/07/08 12:18:14;;;;;;;2.15;1.95;;;19.50;99.90;;;;;;6176036;28;20505;-77
2021/07/08 12:21:29;;;;;;;2.20;2.00;;;19.40;99.90;;;;;;6177305;28;20129;-77
2021/07/08 12:24:33;;;;;;;2.20;2.03;;;19.40;99.90;;;;;;6176157;28;20129;-77
2021/07/08 12:27:38;;;;;;;2.55;2.35;;;19.40;99.90;;;;;;6176507;28;20051;-77
2021/07/08 12:30:40;;;;;;;4.13;1.95;;;19.40;99.90;;;;;;6176402;28;20468;-78
2021/07/08 12:33:53;;;;;;;2.83;1.92;;;19.50;99.90;;;;;;6177181;28;20141;-77
2021/07/08 12:37:10;;;;;;;2.97;2.78;;;19.50;99.90;;;;;;6153519;28;20070;-77
2021/07/08 12:40:14;;;;;;;3.38;3.08;;;19.50;99.90;;;;;;6170664;28;20181;-77
2021/07/08 12:43:18;;;;;;;3.90;3.50;;;19.60;99.90;;;;;;6176339;28;20129;-77
2021/07/08 12:46:20;;;;;;;4.57;4.18;;;19.80;99.90;;;;;;6177192;28;20047;-77
2021/07/08 12:49:22;;;;;;;5.68;3.55;;;19.90;99.90;;;;;;6176555;28;20133;-77
2021/07/08 12:52:26;;;;;;;4.10;3.30;;;20.00;99.90;;;;;;6175548;28;20131;-77
2021/07/08 12:55:37;;;;;;;3.55;3.25;;;20.10;99.90;;;;;;6176100;28;20149;-77
2021/07/08 12:58:39;;;;;;;3.03;2.83;;;20.20;99.90;;;;;;6175138;28;20047;-77
2021/07/08 13:01:40;;;;;;;3.20;2.88;;;20.20;99.90;;;;;;6176514;28;20085;-77
2021/07/08 13:04:42;;;;;;;3.92;3.63;;;20.20;99.90;;;;;;6175462;28;20583;-77
2021/07/08 13:07:50;;;;;;;3.30;3.10;;;20.20;99.90;;;;;;6176139;28;20103;-77
2021/07/08 13:10:53;;;;;;;5.63;3.38;;;20.30;99.90;;;;;;6176260;28;20512;-77
2021/07/08 13:13:55;;;;;;;1.88;1.70;;;20.40;99.90;;;;;;6165888;28;20093;-78
2021/07/08 13:17:08;;;;;;;3.53;3.22;;;20.40;99.90;;;;;;6153475;29;20528;-77
2021/07/08 13:20:11;;;;;;;2.50;2.22;;;20.40;99.90;;;;;;6153497;28;20525;-77
2021/07/08 13:23:22;;;;;;;3.88;3.53;;;20.40;99.90;;;;;;6151646;28;20047;-77
2021/07/08 13:26:24;;;;;;;3.30;3.10;;;20.30;99.90;;;;;;6151020;28;20126;-78
2021/07/08 13:29:29;;;;;;;5.50;5.00;;;20.40;99.90;;;;;;6151196;29;20501;-78
2021/07/08 13:32:31;;;;;;;4.30;2.63;;;20.40;99.90;;;;;;6150840;28;20178;-77
2021/07/08 13:35:48;;;;;;;7.05;2.42;;;20.50;99.90;;;;;;6150841;28;20055;-77
2021/07/08 13:38:57;;;;;;;3.50;3.20;;;20.70;99.90;;;;;;6150402;29;20133;-77
2021/07/08 13:42:04;;;;;;;2.22;2.13;;;20.80;99.90;;;;;;6150382;28;20094;-77
2021/07/08 13:45:30;;;;;;;3.05;2.80;;;21.00;99.90;;;;;;6151184;28;20117;-77
2021/07/08 13:48:36;;;;;;;3.80;2.75;;;20.90;99.90;;;;;;6150170;29;20446;-76
2021/07/08 13:51:44;;;;;;;3.17;2.97;;;21.00;99.90;;;;;;6150564;29;20071;-77
2021/07/08 13:54:47;;;;;;;4.22;3.85;;;20.90;99.90;;;;;;6150079;28;20047;-77
2021/07/08 13:57:49;;;;;;;4.30;3.90;;;20.80;99.90;;;;;;6150577;29;20055;-76
2021/07/08 14:00:50;;;;;;;4.78;3.45;;;20.70;99.90;;;;;;6150000;29;20166;-77
2021/07/08 14:03:52;;;;;;;4.05;3.75;;;20.50;99.90;;;;;;6150225;28;20125;-76
2021/07/08 14:06:54;;;;;;;3.55;3.25;;;20.40;99.90;;;;;;6149631;29;20051;-76
2021/07/08 14:09:58;;;;;;;4.35;3.95;;;20.20;99.90;;;;;;6149817;28;20437;-76
2021/07/08 14:13:00;;;;;;;3.70;3.40;;;20.00;99.90;;;;;;6149676;28;20142;-77
2021/07/08 14:16:02;;;;;;;6.53;4.57;;;19.90;99.90;;;;;;6172366;28;20050;-77
2021/07/08 14:19:04;;;;;;;4.05;3.75;;;19.80;99.90;;;;;;6173824;28;20058;-76
2021/07/08 14:22:06;;;;;;;5.10;3.85;;;19.80;99.90;;;;;;6173618;28;20201;-77
2021/07/08 14:25:11;;;;;;;4.15;3.75;;;19.80;99.90;;;;;;6174057;28;20173;-76
2021/07/08 14:28:14;;;;;;;4.00;3.70;;;19.80;99.90;;;;;;6173036;28;20133;-77
2021/07/08 14:31:16;;;;;;;4.40;4.00;;;19.90;99.90;;;;;;6173567;28;20129;-77
2021/07/08 14:34:17;;;;;;;3.97;3.70;;;20.00;99.90;;;;;;6173005;28;20078;-76
2021/07/08 14:37:19;;;;;;;4.18;3.88;;;20.10;99.90;;;;;;6173914;28;20086;-77
2021/07/08 14:40:22;;;;;;;4.30;3.70;;;20.20;99.90;;;;;;6173314;28;20389;-76
2021/07/08 14:43:37;;;;;;;4.78;3.10;;;20.40;99.90;;;;;;6172756;28;20547;-77
2021/07/08 14:46:39;;;;;;;3.05;2.85;;;20.50;99.90;;;;;;6172984;28;20050;-77
2021/07/08 14:49:41;;;;;;;2.60;2.40;;;20.70;99.90;;;;;;6173772;28;20079;-77
2021/07/08 14:52:43;;;;;;;4.40;2.15;;;20.90;99.90;;;;;;6173021;28;20055;-77
2021/07/08 14:55:46;;;;;;;2.33;2.13;;;21.10;99.90;;;;;;6172546;28;20535;-78
2021/07/08 14:58:48;;;;;;;4.38;2.42;;;21.20;99.90;;;;;;6173099;28;20125;-77
2021/07/08 15:01:50;;;;;;;6.05;2.85;;;21.30;99.90;;;;;;6173817;28;20176;-78
2021/07/08 15:04:52;;;;;;;2.47;2.28;;;21.20;99.90;;;;;;6172947;28;20085;-78
2021/07/08 15:07:54;;;;;;;4.80;3.15;;;21.10;99.90;;;;;;6172690;28;20097;-78
2021/07/08 15:10:59;;;;;;;3.65;3.35;;;20.90;99.90;;;;;;6173370;28;20173;-77
2021/07/08 15:14:01;;;;;;;5.00;3.53;;;20.70;99.90;;;;;;6172154;28;20093;-78
2021/07/08 15:17:04;;;;;;;5.03;3.22;;;20.60;99.90;;;;;;6169739;28;20129;-77
2021/07/08 15:20:08;;;;;;;6.55;2.92;;;20.50;99.90;;;;;;6172973;28;20053;-77
2021/07/08 15:23:09;;;;;;;6.72;4.10;;;20.50;99.90;;;;;;6177269;28;20097;-78
2021/07/08 15:26:13;;;;;;;5.68;3.58;;;20.60;99.90;;;;;;6178075;28;20087;-77
2021/07/08 15:29:15;;;;;;;8.50;3.08;;;20.70;99.90;;;;;;6178993;28;20050;-78
2021/07/08 15:32:16;;;;;;;3.03;2.72;;;20.70;99.90;;;;;;6178407;28;20524;-79
2021/07/08 15:35:19;;;;;;;4.70;3.17;;;20.70;99.90;;;;;;6178867;28;20082;-79
2021/07/08 15:38:21;;;;;;;3.95;3.53;;;20.80;99.90;;;;;;6178291;28;20049;-79
2021/07/08 15:41:27;;;;;;;3.33;3.03;;;20.80;99.90;;;;;;6179237;28;20085;-78
2021/07/08 15:44:29;;;;;;;3.92;3.08;;;20.90;99.90;;;;;;6178763;28;20046;-79
2021/07/08 15:47:30;;;;;;;3.90;3.53;;;21.00;99.90;;;;;;6178546;28;20125;-79
2021/07/08 15:50:32;;;;;;;3.95;3.50;;;21.00;99.90;;;;;;6178534;28;20182;-78
2021/07/08 15:53:34;;;;;;;7.03;3.28;;;21.00;99.90;;;;;;6180175;28;20136;-79
2021/07/08 15:56:37;;;;;;;7.85;3.63;;;20.90;99.90;;;;;;6179306;28;20136;-79
2021/07/08 15:59:39;;;;;;;6.95;3.67;;;20.70;99.90;;;;;;6179455;28;20098;-79